Oujda, Morocco

2:37 AM WET on February 02, 2015 (GMT +0000)
Zenata-Messali El Hadj | Change Station
CLOSE
Current Station
Airport
Location: Tlemcen,
Elevation: 810 ft
Nearby Weather Stations

Elev 810 ft 35.01 °N, 1.46 °W | Updated 7 minutes ago

Partly Cloudy
Partly Cloudy
46 °F
Feels Like 40 °F
N
16
Wind Variable Wind from SW

Today
High -- | Low -- °F
--% Chance of Precip.
Yesterday
High -- | Low -- °F
Precip. -- in
7:05 AM 5:37 PM
Waxing Gibbous, 97% visible
Pressure 30.09 in
Visibility 6.2 miles
Clouds Few 2600 ft
Windchill 40 °F
Dew Point 30 °F
Humidity 53%
Rainfall 0.00 in
Snow Depth Not available.
UV 0 out of 12
Pollen Not available.
Air Quality Not available.
Flu Activity Not available.
METAR DAON 020230Z 22014KT 9999 FEW026 08/M01 Q1019

More Conditions Fewer Conditions

Pressure 30.09 in
Visibility 6.2 miles
Clouds Few 2600 ft
Windchill 40 °F
Dew Point 30 °F
Humidity 53%
Rainfall 0.00 in
Snow Depth Not available.
UV 0 out of 12
Pollen Not available.
Air Quality Not available.
Flu Activity Not available.
METAR DAON 020230Z 22014KT 9999 FEW026 08/M01 Q1019

More Conditions Fewer Conditions

10-Day Weather Forecast

Almanac

Astronomy

Feb. 02, 2015 Rise Set
Actual Time
Civil Twilight
Nautical Twilight
Astronomical Twilight
Moon
Length of Visible Light
Length of Day
Tomorrow will be .
, % of the Moon is Illuminated

Today's Extremes

Country Highs Country Lows

Community

WunderPhotos

Upload Photos

1,792,659 photos uploaded!

WunderBlogs® & News

Nearby

Air Quality

  Air Quality AQ Index Pollutant
Not available.

Snow Depth

Station Depth Elevation

Earthquake Activity

City Distance Mag. Time & Date
Minimum magnitude displayed is 2.5.

Coastal Water Temperatures

Place Temperature

Nearby Weather Stations